createdAt,value
2019-03-31T00:00:51.270Z,96.20
2019-03-31T00:03:20.625Z,80.77
2019-03-31T00:05:49.899Z,85.27
2019-03-31T00:08:19.200Z,83.30
2019-03-31T00:10:48.454Z,94.23
2019-03-31T00:13:17.712Z,92.30
2019-03-31T00:15:46.966Z,90.00
2019-03-31T00:18:16.349Z,91.17
2019-03-31T00:20:45.763Z,104.97
2019-03-31T00:23:15.183Z,92.57
2019-03-31T00:25:48.714Z,92.00
2019-03-31T00:28:18.755Z,92.13
2019-03-31T00:30:48.309Z,92.13
2019-03-31T00:33:17.625Z,96.97
2019-03-31T00:35:46.917Z,94.00
2019-03-31T00:38:16.197Z,92.03
2019-03-31T00:40:45.538Z,94.60
2019-03-31T00:43:14.782Z,93.33
2019-03-31T00:45:44.084Z,90.60
2019-03-31T00:48:13.356Z,96.80
2019-03-31T00:50:42.589Z,100.43
2019-03-31T00:53:11.960Z,92.57
2019-03-31T00:55:41.211Z,91.40
2019-03-31T00:58:10.481Z,90.90
2019-03-31T01:00:58.126Z,91.63
2019-03-31T01:03:27.764Z,88.63
2019-03-31T01:05:57.231Z,88.37
2019-03-31T01:08:29.099Z,85.10
2019-03-31T01:10:58.909Z,86.63
2019-03-31T01:13:28.186Z,95.03
2019-03-31T01:15:58.853Z,90.60
2019-03-31T01:18:28.304Z,88.87
2019-03-31T01:20:57.587Z,89.47
2019-03-31T01:23:26.874Z,84.53
2019-03-31T01:25:56.581Z,83.10
2019-03-31T01:28:25.858Z,84.93
2019-03-31T01:30:55.269Z,89.93
2019-03-31T01:33:25.263Z,81.70
2019-03-31T01:35:54.524Z,75.27
2019-03-31T01:38:24.086Z,84.40
2019-03-31T01:40:53.575Z,76.23
2019-03-31T01:43:22.813Z,81.67
2019-03-31T01:45:52.217Z,76.87
2019-03-31T01:48:21.583Z,73.13
2019-03-31T01:50:50.902Z,74.77
2019-03-31T01:53:20.272Z,65.63
2019-03-31T01:55:49.621Z,78.53
2019-03-31T01:58:18.877Z,75.47
2019-03-31T02:00:52.929Z,77.33
2019-03-31T02:03:22.653Z,72.00
2019-03-31T02:05:51.915Z,69.47
2019-03-31T02:08:21.232Z,65.90
2019-03-31T02:10:50.532Z,63.33
2019-03-31T02:13:19.862Z,63.27
2019-03-31T02:15:49.168Z,58.80
2019-03-31T02:18:18.573Z,58.60
2019-03-31T02:20:47.837Z,60.80
2019-03-31T02:23:17.174Z,57.07
2019-03-31T02:25:46.549Z,55.90
2019-03-31T02:28:15.794Z,51.70
2019-03-31T02:30:45.087Z,51.07
2019-03-31T02:33:14.348Z,54.70
2019-03-31T02:35:43.646Z,58.37
2019-03-31T02:38:13.046Z,48.20
2019-03-31T02:40:42.397Z,54.87
2019-03-31T02:43:11.766Z,46.43
2019-03-31T02:45:41.077Z,52.00
2019-03-31T02:48:10.343Z,46.60
2019-03-31T02:50:47.927Z,45.13
2019-03-31T02:53:18.342Z,46.43
2019-03-31T02:55:48.099Z,50.00
2019-03-31T02:58:18.526Z,45.93
2019-03-31T03:00:48.109Z,42.03
2019-03-31T03:03:18.887Z,47.07
2019-03-31T03:05:49.725Z,41.50
2019-03-31T03:08:22.241Z,35.03
2019-03-31T03:10:53.114Z,42.87
2019-03-31T03:13:27.035Z,37.67
2019-03-31T03:16:18.592Z,41.83
2019-03-31T03:18:48.628Z,36.63
2019-03-31T03:21:18.123Z,37.57
2019-03-31T03:23:47.359Z,39.50
2019-03-31T03:26:16.806Z,39.67
2019-03-31T03:28:46.153Z,42.17
2019-03-31T03:31:16.858Z,40.87
2019-03-31T03:33:46.843Z,37.57
2019-03-31T03:36:16.833Z,40.43
2019-03-31T03:38:46.097Z,41.90
2019-03-31T03:41:15.534Z,37.03
2019-03-31T03:43:55.118Z,38.03
2019-03-31T03:46:15.894Z,41.17
2019-03-31T03:48:45.201Z,35.20
2019-03-31T03:51:14.566Z,37.43
2019-03-31T03:53:43.828Z,34.53
2019-03-31T03:56:13.187Z,36.10
2019-03-31T03:58:42.538Z,36.13
2019-03-31T04:01:16.910Z,33.30
2019-03-31T04:03:46.283Z,38.60
2019-03-31T04:06:15.690Z,32.53
2019-03-31T04:08:44.962Z,35.20
2019-03-31T04:11:32.673Z,33.93
2019-03-31T04:14:01.929Z,29.37
2019-03-31T04:16:31.219Z,30.33
2019-03-31T04:19:00.565Z,31.67
2019-03-31T04:21:29.842Z,29.47
2019-03-31T04:23:59.214Z,37.83
2019-03-31T04:26:28.502Z,29.93
2019-03-31T04:28:57.778Z,28.27
2019-03-31T04:31:27.046Z,23.23
2019-03-31T04:33:56.363Z,26.77
2019-03-31T04:36:25.715Z,22.03
2019-03-31T04:38:54.998Z,23.27
2019-03-31T04:41:25.959Z,24.60
2019-03-31T04:43:55.282Z,22.30
2019-03-31T04:46:24.534Z,30.23
2019-03-31T04:48:53.803Z,20.50
2019-03-31T04:51:23.161Z,26.90
2019-03-31T04:53:52.478Z,23.97
2019-03-31T04:56:21.835Z,27.53
2019-03-31T04:58:51.117Z,23.67
2019-03-31T05:01:20.382Z,25.60
2019-03-31T05:04:03.395Z,22.60
2019-03-31T05:06:20.739Z,20.93
2019-03-31T05:08:50.005Z,23.50
2019-03-31T05:11:19.301Z,20.37
2019-03-31T05:13:48.579Z,25.20
2019-03-31T05:16:17.842Z,21.70
2019-03-31T05:18:47.118Z,27.00
2019-03-31T05:21:16.521Z,26.83
2019-03-31T05:23:45.785Z,21.43
2019-03-31T05:26:15.159Z,23.13
2019-03-31T05:28:44.442Z,23.33
2019-03-31T05:31:13.757Z,19.67
2019-03-31T05:33:43.031Z,23.67
2019-03-31T05:36:12.327Z,19.90
2019-03-31T05:38:41.593Z,22.90
2019-03-31T05:41:10.854Z,22.53
2019-03-31T05:43:40.146Z,20.30
2019-03-31T05:46:09.493Z,29.17
2019-03-31T05:48:38.810Z,28.37
2019-03-31T05:51:08.169Z,26.73
2019-03-31T05:53:37.430Z,23.77
2019-03-31T05:56:06.739Z,24.70
2019-03-31T05:58:36.160Z,25.80
2019-03-31T06:01:05.499Z,23.33
2019-03-31T06:03:34.754Z,24.57
2019-03-31T06:06:04.203Z,27.07
2019-03-31T06:08:33.445Z,23.70
2019-03-31T06:11:02.758Z,21.40
2019-03-31T06:13:32.061Z,18.77
2019-03-31T06:16:01.309Z,16.63
2019-03-31T06:18:30.558Z,17.70
2019-03-31T06:21:00.034Z,23.90
2019-03-31T06:23:29.367Z,23.77
2019-03-31T06:25:58.697Z,18.17
2019-03-31T06:28:27.974Z,20.77
2019-03-31T06:30:57.256Z,20.53
2019-03-31T06:33:26.497Z,18.83
2019-03-31T06:35:55.856Z,16.07
2019-03-31T06:38:25.117Z,18.93
2019-03-31T06:40:55.162Z,17.30
2019-03-31T06:43:24.457Z,18.17
2019-03-31T06:45:53.805Z,19.60
2019-03-31T06:48:23.061Z,18.00
2019-03-31T06:50:52.358Z,13.50
2019-03-31T06:53:21.605Z,21.50
2019-03-31T06:55:50.957Z,15.67
2019-03-31T06:58:20.263Z,13.07
2019-03-31T07:00:49.510Z,17.10
2019-03-31T07:03:18.863Z,18.67
2019-03-31T07:05:48.199Z,18.70
2019-03-31T07:08:17.523Z,16.90
2019-03-31T07:10:46.884Z,18.97
2019-03-31T07:13:16.190Z,15.57
2019-03-31T07:15:45.490Z,14.80
2019-03-31T07:18:16.094Z,13.70
2019-03-31T07:20:45.476Z,14.87
2019-03-31T07:23:14.725Z,11.87
2019-03-31T07:25:44.026Z,15.27
2019-03-31T07:28:13.353Z,15.73
2019-03-31T07:30:42.604Z,12.93
2019-03-31T07:33:11.853Z,12.77
2019-03-31T07:35:41.128Z,20.93
2019-03-31T07:38:10.503Z,21.37
2019-03-31T07:40:39.762Z,13.90
2019-03-31T07:43:09.211Z,13.73
2019-03-31T07:45:38.742Z,13.33
2019-03-31T07:48:08.347Z,16.63
2019-03-31T07:50:37.754Z,14.77
2019-03-31T07:53:07.035Z,15.70
2019-03-31T07:55:36.269Z,13.23
2019-03-31T07:58:05.594Z,12.07
2019-03-31T08:00:34.973Z,15.70
2019-03-31T08:03:04.305Z,11.10
2019-03-31T08:05:37.495Z,13.50
2019-03-31T08:08:04.676Z,12.60
2019-03-31T08:10:33.925Z,8.23
2019-03-31T08:13:03.270Z,9.43
2019-03-31T08:15:32.505Z,12.00
2019-03-31T08:18:01.794Z,18.27
2019-03-31T08:20:31.091Z,7.67
2019-03-31T08:23:01.675Z,8.37
2019-03-31T08:25:30.940Z,9.80
2019-03-31T08:28:00.307Z,11.03
2019-03-31T08:30:29.590Z,11.77
2019-03-31T08:32:58.953Z,9.73
2019-03-31T08:35:28.236Z,7.20
2019-03-31T08:37:57.525Z,9.50
2019-03-31T08:40:26.909Z,6.30
2019-03-31T08:42:56.246Z,7.50
2019-03-31T08:45:25.602Z,5.33
2019-03-31T08:47:54.864Z,5.50
2019-03-31T08:50:24.206Z,7.17
2019-03-31T08:52:53.507Z,5.73
2019-03-31T08:55:22.770Z,3.93
2019-03-31T08:57:52.055Z,3.57
2019-03-31T09:00:44.377Z,4.03
2019-03-31T09:03:13.713Z,4.33
2019-03-31T09:05:43.052Z,3.97
2019-03-31T09:08:12.317Z,5.60
2019-03-31T09:10:44.553Z,5.60
2019-03-31T09:13:13.829Z,4.27
2019-03-31T09:15:43.214Z,5.77
2019-03-31T09:18:12.545Z,5.27
2019-03-31T09:20:41.797Z,4.23
2019-03-31T09:23:11.057Z,8.17
2019-03-31T09:25:40.461Z,3.87
2019-03-31T09:28:09.761Z,6.53
2019-03-31T09:30:39.226Z,7.83
2019-03-31T09:33:08.505Z,4.77
2019-03-31T09:35:37.829Z,7.27
2019-03-31T09:38:07.108Z,12.53
2019-03-31T09:40:36.365Z,9.60
2019-03-31T09:43:05.705Z,8.43
2019-03-31T09:45:34.990Z,3.50
2019-03-31T09:48:04.416Z,6.77
2019-03-31T09:50:33.651Z,6.03
2019-03-31T09:53:02.948Z,5.40
2019-03-31T09:55:32.358Z,4.97
2019-03-31T09:58:01.625Z,6.20
2019-03-31T10:00:44.769Z,6.63
2019-03-31T10:03:14.190Z,6.17
2019-03-31T10:05:43.526Z,6.17
2019-03-31T10:08:12.988Z,7.73
2019-03-31T10:10:42.236Z,5.60
2019-03-31T10:13:11.510Z,4.47
2019-03-31T10:15:40.847Z,6.90
2019-03-31T10:18:10.110Z,4.20
2019-03-31T10:20:39.353Z,7.50
2019-03-31T10:23:08.817Z,2.27
2019-03-31T10:25:38.081Z,3.63
2019-03-31T10:28:07.539Z,3.63
2019-03-31T10:30:38.861Z,4.47
2019-03-31T10:33:08.657Z,7.13
2019-03-31T10:35:38.055Z,6.93
2019-03-31T10:38:07.693Z,4.60
2019-03-31T10:40:37.055Z,5.60
2019-03-31T10:43:06.462Z,9.47
2019-03-31T10:45:35.819Z,4.03
2019-03-31T10:48:19.185Z,6.83
2019-03-31T10:50:36.344Z,8.07
2019-03-31T10:53:05.777Z,6.23
2019-03-31T10:55:35.070Z,4.73
2019-03-31T10:58:04.410Z,5.70
2019-03-31T11:00:35.425Z,8.33
2019-03-31T11:03:06.368Z,9.93
2019-03-31T11:05:36.038Z,6.03
2019-03-31T11:08:28.926Z,6.37
2019-03-31T11:10:58.392Z,13.27
2019-03-31T11:13:29.428Z,5.37
2019-03-31T11:16:04.367Z,7.50
2019-03-31T11:18:36.965Z,6.67
2019-03-31T11:21:17.813Z,16.10
2019-03-31T11:23:56.225Z,8.47
2019-03-31T11:26:27.395Z,8.63
2019-03-31T11:29:05.929Z,6.17
2019-03-31T11:31:37.543Z,6.87
2019-03-31T11:34:15.781Z,9.57
2019-03-31T11:36:45.057Z,5.97
2019-03-31T11:39:16.220Z,5.57
2019-03-31T11:41:45.372Z,4.77
2019-03-31T11:44:14.783Z,7.67
2019-03-31T11:46:44.020Z,7.60
2019-03-31T11:49:13.305Z,7.93
2019-03-31T11:51:42.770Z,6.20
2019-03-31T11:54:12.021Z,6.67
2019-03-31T11:56:41.269Z,4.90
2019-03-31T11:59:10.533Z,9.83
2019-03-31T12:01:39.817Z,6.57
2019-03-31T12:04:09.124Z,5.70
2019-03-31T12:06:38.420Z,6.80
2019-03-31T12:09:08.246Z,7.33
2019-03-31T12:11:37.618Z,5.67
2019-03-31T12:14:06.997Z,4.87
2019-03-31T12:16:36.325Z,6.73
2019-03-31T12:19:05.665Z,3.20
2019-03-31T12:21:35.041Z,7.00
2019-03-31T12:24:04.465Z,6.20
2019-03-31T12:26:33.778Z,3.50
2019-03-31T12:29:03.054Z,7.20
2019-03-31T12:31:32.539Z,7.37
2019-03-31T12:34:01.785Z,7.17
2019-03-31T12:36:31.157Z,6.37
2019-03-31T12:39:00.521Z,5.23
2019-03-31T12:41:29.786Z,3.70
2019-03-31T12:43:59.170Z,5.93
2019-03-31T12:46:28.485Z,5.90
2019-03-31T12:48:57.741Z,7.73
2019-03-31T12:51:26.995Z,9.10
2019-03-31T12:53:57.569Z,7.23
2019-03-31T12:56:26.825Z,7.27
2019-03-31T12:58:56.086Z,9.93
2019-03-31T13:01:25.341Z,7.33
2019-03-31T13:03:54.676Z,7.03
2019-03-31T13:06:24.025Z,6.70
2019-03-31T13:08:53.292Z,7.33
2019-03-31T13:11:22.532Z,6.73
2019-03-31T13:13:51.781Z,5.33
2019-03-31T13:16:21.122Z,12.67
2019-03-31T13:18:50.373Z,7.40
2019-03-31T13:21:19.678Z,8.70
2019-03-31T13:23:48.955Z,8.97
2019-03-31T13:26:20.557Z,5.27
2019-03-31T13:28:49.832Z,7.57
2019-03-31T13:31:19.115Z,8.83
2019-03-31T13:33:48.355Z,7.83
2019-03-31T13:36:17.689Z,8.47
2019-03-31T13:38:46.943Z,10.93
2019-03-31T13:41:16.281Z,7.87
2019-03-31T13:43:45.566Z,6.40
2019-03-31T13:46:14.981Z,7.20
2019-03-31T13:48:44.329Z,11.17
2019-03-31T13:51:13.607Z,7.63
2019-03-31T13:53:42.892Z,6.60
2019-03-31T13:56:12.442Z,7.23
2019-03-31T13:58:42.097Z,5.83
2019-03-31T14:01:11.793Z,6.40
2019-03-31T14:03:41.223Z,7.70
2019-03-31T14:06:10.505Z,5.43
2019-03-31T14:08:39.756Z,6.67
2019-03-31T14:11:09.233Z,5.47
2019-03-31T14:13:38.515Z,2.87
2019-03-31T14:16:07.758Z,6.80
2019-03-31T14:18:37.013Z,7.40
2019-03-31T14:21:06.289Z,5.60
2019-03-31T14:23:35.547Z,5.07
2019-03-31T14:26:05.244Z,4.35
2019-03-31T14:28:39.386Z,9.03
2019-03-31T14:31:06.331Z,6.13
2019-03-31T14:33:35.668Z,10.32
2019-03-31T14:36:05.049Z,10.87
2019-03-31T14:38:40.305Z,11.13
2019-03-31T14:41:06.176Z,4.37
2019-03-31T14:43:35.437Z,10.57
2019-03-31T14:46:04.697Z,5.63
2019-03-31T14:48:34.010Z,7.60
2019-03-31T14:51:03.289Z,6.67
2019-03-31T14:53:32.953Z,6.60
2019-03-31T14:56:02.718Z,7.53
2019-03-31T14:58:33.517Z,7.12
2019-03-31T15:01:02.930Z,6.08
2019-03-31T15:03:35.874Z,3.85
2019-03-31T15:06:05.533Z,7.35
2019-03-31T15:08:36.607Z,4.65
2019-03-31T15:11:09.102Z,6.65
2019-03-31T15:13:40.813Z,9.85
2019-03-31T15:16:10.305Z,7.20
2019-03-31T15:18:42.545Z,7.10
2019-03-31T15:21:11.970Z,7.87
2019-03-31T15:23:41.381Z,8.75
2019-03-31T15:26:23.554Z,5.12
2019-03-31T15:28:56.883Z,7.85
2019-03-31T15:31:34.333Z,7.50
2019-03-31T15:34:06.689Z,5.92
2019-03-31T15:36:41.885Z,6.53
2019-03-31T15:39:15.429Z,5.70
2019-03-31T15:41:47.795Z,8.98
2019-03-31T15:44:20.456Z,6.45
2019-03-31T15:46:49.981Z,7.37
2019-03-31T15:49:20.094Z,9.75
2019-03-31T15:51:55.228Z,6.22
2019-03-31T15:54:31.126Z,7.45
2019-03-31T15:57:00.649Z,7.62
2019-03-31T15:59:30.327Z,5.08
2019-03-31T16:02:00.761Z,7.95
2019-03-31T16:04:30.258Z,11.83
2019-03-31T16:06:59.937Z,7.22
2019-03-31T16:09:35.011Z,4.90
2019-03-31T16:12:08.241Z,3.70
2019-03-31T16:14:54.765Z,10.40
2019-03-31T16:17:32.977Z,6.87
2019-03-31T16:20:10.547Z,6.35
2019-03-31T16:22:47.812Z,4.70
2019-03-31T16:25:18.925Z,3.98
2019-03-31T16:27:47.901Z,6.33
2019-03-31T16:30:26.843Z,5.17
2019-03-31T16:33:02.961Z,4.37
2019-03-31T16:35:31.793Z,6.08
2019-03-31T16:38:00.715Z,4.40
2019-03-31T16:40:29.682Z,7.30
2019-03-31T16:42:59.776Z,5.27
2019-03-31T16:45:28.605Z,8.07
2019-03-31T16:47:57.361Z,6.60
2019-03-31T16:50:26.089Z,3.10
2019-03-31T16:52:54.818Z,7.23
2019-03-31T16:55:23.690Z,5.37
2019-03-31T16:57:52.477Z,6.10
2019-03-31T17:00:21.357Z,6.60
2019-03-31T17:02:50.109Z,4.70
2019-03-31T17:05:23.757Z,5.87
2019-03-31T17:07:52.557Z,8.67
2019-03-31T17:10:21.461Z,7.93
2019-03-31T17:12:50.323Z,5.57
2019-03-31T17:15:19.151Z,6.23
2019-03-31T17:17:47.914Z,7.70
2019-03-31T17:20:17.079Z,5.07
2019-03-31T17:22:45.809Z,4.27
2019-03-31T17:25:14.604Z,6.07
2019-03-31T17:27:43.353Z,5.40
2019-03-31T17:30:13.225Z,8.87
2019-03-31T17:32:41.994Z,5.70
2019-03-31T17:35:10.719Z,6.00
2019-03-31T17:37:39.505Z,7.10
2019-03-31T17:40:08.587Z,6.80
2019-03-31T17:42:37.297Z,6.90
2019-03-31T17:45:06.708Z,7.57
2019-03-31T17:47:35.434Z,7.67
2019-03-31T17:50:05.046Z,6.53
2019-03-31T17:52:33.898Z,4.80
2019-03-31T17:55:02.967Z,7.07
2019-03-31T17:57:31.674Z,9.30
2019-03-31T18:00:01.682Z,5.13
2019-03-31T18:02:32.653Z,7.90
2019-03-31T18:05:01.417Z,6.00
2019-03-31T18:07:30.172Z,11.70
2019-03-31T18:09:59.878Z,10.63
2019-03-31T18:12:28.629Z,5.43
2019-03-31T18:14:57.393Z,5.20
2019-03-31T18:17:26.129Z,6.17
2019-03-31T18:19:54.851Z,5.43
2019-03-31T18:22:23.605Z,5.93
2019-03-31T18:24:52.425Z,4.77
2019-03-31T18:27:23.741Z,7.30
2019-03-31T18:29:52.451Z,7.73
2019-03-31T18:32:21.220Z,8.43
2019-03-31T18:34:49.939Z,5.47
2019-03-31T18:37:18.693Z,4.33
2019-03-31T18:39:47.414Z,6.47
2019-03-31T18:42:16.174Z,4.97
2019-03-31T18:44:44.898Z,6.43
2019-03-31T18:47:13.777Z,6.72
2019-03-31T18:49:42.512Z,9.23
2019-03-31T18:52:11.212Z,6.13
2019-03-31T18:55:14.264Z,11.30
2019-03-31T18:58:03.842Z,4.67
2019-03-31T19:01:00.533Z,6.50
2019-03-31T19:03:37.236Z,10.20
2019-03-31T19:06:24.116Z,5.30
2019-03-31T19:09:27.305Z,7.17
2019-03-31T19:12:14.045Z,6.50
2019-03-31T19:15:01.913Z,8.57
2019-03-31T19:17:41.485Z,7.27
2019-03-31T19:20:36.950Z,8.87
2019-03-31T19:23:10.784Z,6.47
2019-03-31T19:25:57.473Z,8.43
2019-03-31T19:28:47.876Z,8.40
2019-03-31T19:31:25.478Z,5.20
2019-03-31T19:34:22.196Z,8.20
2019-03-31T19:37:10.017Z,9.30
2019-03-31T19:39:56.674Z,4.67
2019-03-31T19:42:43.675Z,8.03
2019-03-31T19:45:35.505Z,8.93
2019-03-31T19:48:21.784Z,5.47
2019-03-31T19:51:15.417Z,8.17
2019-03-31T19:54:03.125Z,8.93
2019-03-31T19:56:49.647Z,6.13
2019-03-31T19:59:42.878Z,12.83
2019-03-31T20:02:37.259Z,6.10
2019-03-31T20:05:15.557Z,6.40
2019-03-31T20:08:08.910Z,8.10
2019-03-31T20:10:59.778Z,7.47
2019-03-31T20:13:50.684Z,6.93
2019-03-31T20:16:56.961Z,9.10
2019-03-31T20:19:43.655Z,7.23
2019-03-31T20:22:20.793Z,9.70
2019-03-31T20:24:59.429Z,4.13
2019-03-31T20:27:47.233Z,4.93
2019-03-31T20:30:34.017Z,8.90
2019-03-31T20:33:17.069Z,6.47
2019-03-31T20:36:10.770Z,8.67
2019-03-31T20:38:48.157Z,7.80
2019-03-31T20:41:30.282Z,5.03
2019-03-31T20:43:59.001Z,8.83
2019-03-31T20:46:28.138Z,7.70
2019-03-31T20:48:57.189Z,7.00
2019-03-31T20:51:25.928Z,11.50
2019-03-31T20:53:56.814Z,7.63
2019-03-31T20:56:25.543Z,8.53
2019-03-31T20:58:54.253Z,6.17
2019-03-31T21:01:23.001Z,5.57
2019-03-31T21:03:51.857Z,6.07
2019-03-31T21:06:20.716Z,8.43
2019-03-31T21:08:49.497Z,7.13
2019-03-31T21:11:18.242Z,6.03
2019-03-31T21:13:47.065Z,25.33
2019-03-31T21:16:15.907Z,11.93
2019-03-31T21:18:44.701Z,12.17
2019-03-31T21:21:13.449Z,11.17
2019-03-31T21:23:42.182Z,9.43
2019-03-31T21:26:10.937Z,8.83
2019-03-31T21:28:39.642Z,8.90
2019-03-31T21:31:08.407Z,6.23
2019-03-31T21:33:37.161Z,5.80
2019-03-31T21:36:05.968Z,15.57
2019-03-31T21:38:34.672Z,8.33
2019-03-31T21:41:03.514Z,4.80
2019-03-31T21:43:32.329Z,7.97
2019-03-31T21:46:01.089Z,10.77
2019-03-31T21:48:30.072Z,6.30
2019-03-31T21:50:58.881Z,8.00
2019-03-31T21:53:27.585Z,7.27
2019-03-31T21:55:56.853Z,7.17
2019-03-31T21:58:29.936Z,7.50
2019-03-31T22:00:59.531Z,10.50
2019-03-31T22:03:28.426Z,7.47
2019-03-31T22:05:57.198Z,8.23
2019-03-31T22:08:25.966Z,8.77
2019-03-31T22:10:54.738Z,10.07
2019-03-31T22:13:23.462Z,8.40
2019-03-31T22:15:52.229Z,7.93
2019-03-31T22:18:21.023Z,13.17
2019-03-31T22:20:49.785Z,8.27
2019-03-31T22:23:18.555Z,4.33
2019-03-31T22:25:47.424Z,6.33
2019-03-31T22:28:16.165Z,6.53
2019-03-31T22:30:44.969Z,7.57
2019-03-31T22:33:14.057Z,8.00
2019-03-31T22:35:45.369Z,9.53
2019-03-31T22:38:14.081Z,10.03
2019-03-31T22:40:42.810Z,4.73
2019-03-31T22:43:13.974Z,5.97
2019-03-31T22:45:42.698Z,5.23
2019-03-31T22:48:11.410Z,8.30
2019-03-31T22:50:40.141Z,5.70
2019-03-31T22:53:08.849Z,8.93
2019-03-31T22:55:37.570Z,2.80
2019-03-31T22:58:06.297Z,4.83
2019-03-31T23:00:35.085Z,7.23
2019-03-31T23:03:05.075Z,5.07
2019-03-31T23:05:33.795Z,7.60
2019-03-31T23:08:02.511Z,7.73
2019-03-31T23:10:31.297Z,4.37
2019-03-31T23:13:00.036Z,8.47
2019-03-31T23:15:28.806Z,5.23
2019-03-31T23:17:57.573Z,9.20
2019-03-31T23:20:26.381Z,4.30
2019-03-31T23:22:55.173Z,4.20
2019-03-31T23:25:25.451Z,7.10
2019-03-31T23:27:54.201Z,9.80
2019-03-31T23:30:22.977Z,10.23
2019-03-31T23:32:51.754Z,4.90
2019-03-31T23:35:20.563Z,7.67
2019-03-31T23:37:49.302Z,4.83
2019-03-31T23:40:18.044Z,2.37
2019-03-31T23:42:46.755Z,7.60
2019-03-31T23:45:15.582Z,5.37
2019-03-31T23:47:44.423Z,4.23
2019-03-31T23:50:13.423Z,6.20
2019-03-31T23:52:42.313Z,5.97
2019-03-31T23:55:11.204Z,2.57
2019-03-31T23:57:40.407Z,7.33
